createdAt,value
2023-01-17T00:02:52.667Z,69.06
2023-01-17T00:08:13.425Z,69.62
2023-01-17T00:13:15.534Z,69.30
2023-01-17T00:18:17.780Z,69.44
2023-01-17T00:23:39.837Z,69.31
2023-01-17T00:28:43.906Z,69.61
2023-01-17T00:33:45.919Z,69.70
2023-01-17T00:38:47.960Z,69.53
2023-01-17T00:44:08.637Z,69.58
2023-01-17T00:49:29.130Z,69.56
2023-01-17T00:54:49.768Z,70.12
2023-01-17T01:00:10.755Z,69.94
2023-01-17T01:05:32.945Z,69.76
2023-01-17T01:10:53.394Z,70.12
2023-01-17T01:16:14.046Z,69.80
2023-01-17T01:21:34.590Z,69.73
2023-01-17T01:26:55.464Z,69.94
2023-01-17T01:32:15.896Z,69.89
2023-01-17T01:37:17.902Z,69.57
2023-01-17T01:42:20.048Z,69.45
2023-01-17T01:47:38.064Z,69.72
2023-01-17T01:52:44.510Z,69.43
2023-01-17T01:57:50.963Z,69.66
2023-01-17T02:02:57.655Z,70.16
2023-01-17T02:08:04.940Z,69.61
2023-01-17T02:13:08.020Z,69.80
2023-01-17T02:18:19.048Z,69.16
2023-01-17T02:23:41.471Z,69.30
2023-01-17T02:29:14.642Z,70.08
2023-01-17T02:34:31.305Z,69.58
2023-01-17T02:39:40.316Z,69.74
2023-01-17T02:44:44.197Z,69.93
2023-01-17T02:49:46.314Z,69.57
2023-01-17T02:55:03.326Z,69.69
2023-01-17T03:00:05.625Z,69.59
2023-01-17T03:05:23.276Z,69.62
2023-01-17T03:10:25.705Z,69.61
2023-01-17T03:15:27.790Z,69.36
2023-01-17T03:20:29.966Z,69.47
2023-01-17T03:25:32.339Z,68.71
2023-01-17T03:30:34.438Z,68.66
2023-01-17T03:35:36.481Z,68.95
2023-01-17T03:40:38.503Z,68.75
2023-01-17T03:45:40.707Z,69.07
2023-01-17T03:50:42.841Z,68.76
2023-01-17T03:55:48.190Z,68.79
2023-01-17T04:00:50.246Z,69.30
2023-01-17T04:05:52.285Z,69.57
2023-01-17T04:10:54.365Z,69.01
2023-01-17T04:15:56.449Z,69.14
2023-01-17T04:20:58.505Z,69.22
2023-01-17T04:26:00.801Z,69.13
2023-01-17T04:31:03.023Z,69.82
2023-01-17T04:36:06.741Z,69.85
2023-01-17T04:41:08.801Z,69.81
2023-01-17T04:46:11.228Z,70.04
2023-01-17T04:51:13.360Z,69.64
2023-01-17T04:56:15.348Z,70.13
2023-01-17T05:01:17.561Z,69.70
2023-01-17T05:06:19.691Z,69.81
2023-01-17T05:11:21.756Z,69.97
2023-01-17T05:16:23.953Z,70.08
2023-01-17T05:21:26.016Z,70.07
2023-01-17T05:26:28.089Z,69.83
2023-01-17T05:31:30.334Z,70.04
2023-01-17T05:36:32.413Z,70.17
2023-01-17T05:41:35.504Z,69.67
2023-01-17T05:46:37.738Z,69.77
2023-01-17T05:51:39.979Z,70.01
2023-01-17T05:56:42.065Z,69.99
2023-01-17T06:01:44.100Z,70.01
2023-01-17T06:06:46.161Z,69.86
2023-01-17T06:11:48.262Z,69.87
2023-01-17T06:16:50.429Z,70.26
2023-01-17T06:21:52.528Z,70.14
2023-01-17T06:26:54.666Z,70.03
2023-01-17T06:31:56.753Z,70.76
2023-01-17T06:36:59.241Z,70.25
2023-01-17T06:42:01.409Z,70.49
2023-01-17T06:47:03.651Z,70.57
2023-01-17T06:52:05.852Z,70.94
2023-01-17T06:57:08.049Z,70.61
2023-01-17T07:02:11.762Z,70.78
2023-01-17T07:07:13.891Z,70.80
2023-01-17T07:12:16.002Z,71.07
2023-01-17T07:17:18.097Z,70.30
2023-01-17T07:22:20.152Z,70.99
2023-01-17T07:27:22.289Z,70.65
2023-01-17T07:32:26.808Z,70.91
2023-01-17T07:37:29.025Z,70.96
2023-01-17T07:42:31.164Z,70.55
2023-01-17T07:47:34.148Z,70.26
2023-01-17T07:52:36.403Z,70.85
2023-01-17T07:57:38.543Z,71.00
2023-01-17T08:02:40.638Z,71.12
2023-01-17T08:07:42.722Z,71.10
2023-01-17T08:12:49.417Z,71.38
2023-01-17T08:17:54.865Z,71.12
2023-01-17T08:22:57.197Z,70.92
2023-01-17T08:27:59.517Z,71.45
2023-01-17T08:33:02.370Z,71.20
2023-01-17T08:38:05.066Z,71.48
2023-01-17T08:43:07.153Z,71.48
2023-01-17T08:48:09.216Z,71.26
2023-01-17T08:53:11.545Z,71.28
2023-01-17T08:58:14.134Z,71.40
2023-01-17T09:03:18.499Z,71.50
2023-01-17T09:08:20.587Z,71.40
2023-01-17T09:13:22.882Z,71.97
2023-01-17T09:18:28.991Z,71.21
2023-01-17T09:23:31.082Z,71.58
2023-01-17T09:28:43.938Z,71.76
2023-01-17T09:33:46.080Z,71.10
2023-01-17T09:38:48.542Z,71.31
2023-01-17T09:44:01.897Z,71.02
2023-01-17T09:49:08.685Z,70.65
2023-01-17T09:54:25.511Z,71.20
2023-01-17T09:59:44.331Z,71.09
2023-01-17T10:05:18.555Z,71.06
2023-01-17T10:10:39.341Z,70.97
2023-01-17T10:16:00.100Z,71.33
2023-01-17T10:21:25.102Z,70.69
2023-01-17T10:26:27.822Z,70.95
2023-01-17T10:31:35.029Z,71.02
2023-01-17T10:36:43.161Z,71.15
2023-01-17T10:41:50.586Z,71.17
2023-01-17T10:47:11.030Z,70.70
2023-01-17T10:52:28.570Z,71.13
2023-01-17T10:57:53.252Z,70.93
2023-01-17T11:02:55.993Z,70.98
2023-01-17T11:08:01.428Z,71.33
2023-01-17T11:13:19.847Z,70.86
2023-01-17T11:18:23.994Z,71.14
2023-01-17T11:23:34.360Z,71.16
2023-01-17T11:28:38.726Z,71.02
2023-01-17T11:33:55.830Z,71.59
2023-01-17T11:38:57.924Z,70.87
2023-01-17T11:44:00.840Z,71.24
2023-01-17T11:49:02.963Z,71.12
2023-01-17T11:54:24.600Z,70.82
2023-01-17T11:59:31.637Z,71.01
2023-01-17T12:04:42.617Z,70.98
2023-01-17T12:10:13.538Z,70.99
2023-01-17T12:15:26.114Z,70.90
2023-01-17T12:20:46.636Z,70.58
2023-01-17T12:25:55.347Z,70.69
2023-01-17T12:31:20.869Z,70.76
2023-01-17T12:36:52.578Z,70.52
2023-01-17T12:42:18.699Z,70.71
2023-01-17T12:47:22.165Z,70.49
2023-01-17T12:52:52.049Z,70.77
2023-01-17T12:58:00.407Z,69.96
2023-01-17T13:03:23.143Z,70.89
2023-01-17T13:08:29.231Z,70.09
2023-01-17T13:13:33.628Z,70.03
2023-01-17T13:18:39.329Z,70.03
2023-01-17T13:23:59.350Z,70.61
2023-01-17T13:29:15.045Z,69.94
2023-01-17T13:34:40.394Z,69.83
2023-01-17T13:39:53.818Z,69.35
2023-01-17T13:44:58.003Z,69.95
2023-01-17T13:50:00.040Z,69.52
2023-01-17T13:55:04.986Z,69.33
2023-01-17T14:00:21.343Z,69.24
2023-01-17T14:05:38.739Z,69.75
2023-01-17T14:10:47.190Z,69.14
2023-01-17T14:15:51.229Z,69.13
2023-01-17T14:21:07.041Z,69.24
2023-01-17T14:26:37.479Z,69.56
2023-01-17T14:31:40.579Z,68.68
2023-01-17T14:36:42.750Z,68.93
2023-01-17T14:41:45.861Z,69.18
2023-01-17T14:46:49.231Z,68.56
2023-01-17T14:52:06.427Z,69.75
2023-01-17T14:57:22.791Z,68.29
2023-01-17T15:02:25.094Z,68.19
2023-01-17T15:07:28.986Z,67.49
2023-01-17T15:12:31.113Z,67.49
2023-01-17T15:17:33.210Z,66.58
2023-01-17T15:22:35.489Z,66.51
2023-01-17T15:27:38.796Z,66.49
2023-01-17T15:32:40.953Z,66.31
2023-01-17T15:37:43.022Z,66.16
2023-01-17T15:42:49.312Z,66.09
2023-01-17T15:47:51.531Z,66.01
2023-01-17T15:53:00.509Z,66.17
2023-01-17T15:58:04.125Z,65.85
2023-01-17T16:03:26.820Z,65.70
2023-01-17T16:08:39.298Z,66.20
2023-01-17T16:13:47.302Z,66.24
2023-01-17T16:18:57.741Z,65.72
2023-01-17T16:24:00.608Z,65.62
2023-01-17T16:29:03.044Z,65.01
2023-01-17T16:34:13.993Z,65.22
2023-01-17T16:39:16.124Z,64.39
2023-01-17T16:44:18.200Z,65.08
2023-01-17T16:49:20.276Z,64.79
2023-01-17T16:54:22.573Z,65.20
2023-01-17T16:59:25.055Z,64.87
2023-01-17T17:04:27.239Z,65.12
2023-01-17T17:09:29.303Z,65.27
2023-01-17T17:14:31.330Z,65.49
2023-01-17T17:19:33.931Z,65.53
2023-01-17T17:24:36.064Z,65.80
2023-01-17T17:29:38.139Z,65.67
2023-01-17T17:34:40.280Z,65.41
2023-01-17T17:39:42.568Z,65.56
2023-01-17T17:44:44.595Z,66.20
2023-01-17T17:49:46.686Z,65.93
2023-01-17T17:54:49.125Z,66.05
2023-01-17T17:59:51.238Z,66.14
2023-01-17T18:04:53.361Z,66.30
2023-01-17T18:09:55.517Z,66.13
2023-01-17T18:14:57.578Z,66.47
2023-01-17T18:19:59.793Z,66.76
2023-01-17T18:25:01.913Z,66.37
2023-01-17T18:30:06.365Z,67.12
2023-01-17T18:35:08.949Z,67.07
2023-01-17T18:40:11.371Z,66.63
2023-01-17T18:45:13.531Z,66.96
2023-01-17T18:50:15.996Z,66.84
2023-01-17T18:55:18.052Z,66.38
2023-01-17T19:00:20.536Z,66.58
2023-01-17T19:05:24.646Z,66.71
2023-01-17T19:10:26.737Z,66.34
2023-01-17T19:15:30.894Z,66.75
2023-01-17T19:20:35.534Z,66.70
2023-01-17T19:25:37.660Z,66.45
2023-01-17T19:30:40.783Z,66.43
2023-01-17T19:35:42.877Z,66.57
2023-01-17T19:40:44.868Z,66.87
2023-01-17T19:45:58.801Z,66.38
2023-01-17T19:51:05.574Z,66.11
2023-01-17T19:56:12.885Z,66.70
2023-01-17T20:01:24.691Z,66.19
2023-01-17T20:06:28.913Z,66.13
2023-01-17T20:11:31.103Z,66.23
2023-01-17T20:16:35.773Z,66.42
2023-01-17T20:21:38.144Z,66.08
2023-01-17T20:26:41.163Z,66.43
2023-01-17T20:31:44.841Z,65.74
2023-01-17T20:36:47.057Z,65.95
2023-01-17T20:41:51.550Z,66.00
2023-01-17T20:46:53.597Z,66.23
2023-01-17T20:51:55.706Z,65.99
2023-01-17T20:56:57.751Z,65.66
2023-01-17T21:02:00.098Z,65.53
2023-01-17T21:07:02.243Z,65.62
2023-01-17T21:12:04.350Z,65.60
2023-01-17T21:17:06.542Z,66.05
2023-01-17T21:22:09.285Z,65.66
2023-01-17T21:27:12.928Z,65.64
2023-01-17T21:32:17.325Z,65.85
2023-01-17T21:37:19.528Z,66.38
2023-01-17T21:42:21.731Z,66.87
2023-01-17T21:47:23.914Z,67.58
2023-01-17T21:52:26.030Z,67.56
2023-01-17T21:57:46.823Z,68.22
2023-01-17T22:02:48.971Z,68.43
2023-01-17T22:08:11.267Z,68.56
2023-01-17T22:13:20.213Z,67.75
2023-01-17T22:18:22.251Z,67.66
2023-01-17T22:23:24.450Z,67.96
2023-01-17T22:28:26.465Z,68.12
2023-01-17T22:33:29.543Z,68.14
2023-01-17T22:38:32.402Z,67.99
2023-01-17T22:43:39.428Z,68.16
2023-01-17T22:48:41.915Z,68.15
2023-01-17T22:53:47.215Z,67.86
2023-01-17T22:58:50.307Z,67.87
2023-01-17T23:03:55.359Z,68.23
2023-01-17T23:09:00.252Z,68.47
2023-01-17T23:14:02.443Z,68.39
2023-01-17T23:19:22.904Z,68.33
2023-01-17T23:24:25.029Z,68.56
2023-01-17T23:29:27.132Z,68.00
2023-01-17T23:34:29.263Z,68.61
2023-01-17T23:39:31.340Z,68.27
2023-01-17T23:44:33.503Z,68.25
2023-01-17T23:49:35.582Z,68.41
2023-01-17T23:54:38.712Z,68.66
2023-01-17T23:59:40.849Z,68.38
